createdAt,value
2023-07-31T00:01:47.368Z,99169.34
2023-07-31T00:04:14.162Z,99159.72
2023-07-31T00:06:41.063Z,99156.75
2023-07-31T00:09:07.867Z,99165.03
2023-07-31T00:11:34.493Z,99156.75
2023-07-31T00:14:01.168Z,99169.06
2023-07-31T00:16:27.980Z,99165.59
2023-07-31T00:18:54.714Z,99168.00
2023-07-31T00:21:21.371Z,99173.06
2023-07-31T00:23:48.068Z,99163.19
2023-07-31T00:26:14.653Z,99171.47
2023-07-31T00:28:41.207Z,99181.63
2023-07-31T00:31:10.033Z,99179.50
2023-07-31T00:33:37.670Z,99180.28
2023-07-31T00:36:04.478Z,99185.38
2023-07-31T00:38:32.417Z,99183.22
2023-07-31T00:40:59.197Z,99196.56
2023-07-31T00:43:26.163Z,99199.25
2023-07-31T00:45:53.068Z,99198.16
2023-07-31T00:48:20.115Z,99252.13
2023-07-31T00:50:46.923Z,99249.94
2023-07-31T00:53:14.687Z,99224.59
2023-07-31T00:55:41.718Z,99247.00
2023-07-31T00:58:08.304Z,99260.34
2023-07-31T01:00:34.942Z,99274.22
2023-07-31T01:03:02.014Z,99278.75
2023-07-31T01:06:01.514Z,99298.81
2023-07-31T01:08:40.209Z,99307.06
2023-07-31T01:11:17.472Z,99303.06
2023-07-31T01:13:45.914Z,99308.66
2023-07-31T01:16:13.118Z,99315.59
2023-07-31T01:18:39.768Z,99300.59
2023-07-31T01:21:35.441Z,99305.44
2023-07-31T01:24:21.368Z,99325.72
2023-07-31T01:26:54.873Z,99320.34
2023-07-31T01:29:37.046Z,99325.47
2023-07-31T01:32:05.958Z,99302.53
2023-07-31T01:34:33.632Z,99321.78
2023-07-31T01:37:00.485Z,99332.75
2023-07-31T01:39:27.182Z,99354.91
2023-07-31T01:41:53.832Z,99353.63
2023-07-31T01:44:20.391Z,99385.13
2023-07-31T01:46:47.151Z,99385.91
2023-07-31T01:49:14.049Z,99357.09
2023-07-31T01:51:40.695Z,99373.69
2023-07-31T01:54:07.410Z,99376.09
2023-07-31T01:56:34.208Z,99384.38
2023-07-31T01:59:00.842Z,99396.38
2023-07-31T02:01:27.510Z,99412.69
2023-07-31T02:03:55.222Z,99462.13
2023-07-31T02:06:21.874Z,99480.53
2023-07-31T02:08:48.603Z,99501.38
2023-07-31T02:11:15.310Z,99519.25
2023-07-31T02:13:41.893Z,99532.63
2023-07-31T02:16:08.610Z,99562.75
2023-07-31T02:18:35.193Z,99579.88
2023-07-31T02:21:01.890Z,99609.59
2023-07-31T02:23:28.638Z,99620.00
2023-07-31T02:25:55.275Z,99663.50
2023-07-31T02:28:21.947Z,99691.91
2023-07-31T02:30:48.941Z,99701.81
2023-07-31T02:33:17.527Z,99698.81
2023-07-31T02:35:44.292Z,99633.69
2023-07-31T02:38:10.901Z,99656.16
2023-07-31T02:40:37.553Z,99623.53
2023-07-31T02:43:05.327Z,99662.25
2023-07-31T02:45:34.393Z,99680.66
2023-07-31T02:48:01.197Z,99719.13
2023-07-31T02:50:28.939Z,99749.31
2023-07-31T02:52:55.589Z,99795.22
2023-07-31T02:55:22.361Z,99836.63
2023-07-31T02:57:49.106Z,99898.19
2023-07-31T03:00:15.713Z,99946.59
2023-07-31T03:02:42.451Z,99976.69
2023-07-31T03:05:09.328Z,100008.16
2023-07-31T03:07:36.091Z,100046.78
2023-07-31T03:10:05.653Z,100021.94
2023-07-31T03:12:32.261Z,99950.88
2023-07-31T03:14:59.082Z,99674.25
2023-07-31T03:17:28.529Z,99699.94
2023-07-31T03:19:55.218Z,99712.41
2023-07-31T03:22:21.976Z,99740.50
2023-07-31T03:24:50.524Z,99764.28
2023-07-31T03:27:17.162Z,99771.28
2023-07-31T03:29:43.835Z,99780.09
2023-07-31T03:32:10.520Z,99789.41
2023-07-31T03:34:37.214Z,99793.97
2023-07-31T03:37:05.918Z,99808.34
2023-07-31T03:39:32.809Z,99814.19
2023-07-31T03:41:59.424Z,99837.34
2023-07-31T03:44:25.983Z,99838.34
2023-07-31T03:46:52.848Z,99846.84
2023-07-31T03:49:19.587Z,99854.81
2023-07-31T03:51:46.253Z,99854.97
2023-07-31T03:54:14.320Z,99840.75
2023-07-31T03:56:42.256Z,99826.34
2023-07-31T03:59:09.015Z,99819.06
2023-07-31T04:01:35.683Z,99813.72
2023-07-31T04:04:02.445Z,99806.53
2023-07-31T04:06:29.055Z,99800.63
2023-07-31T04:08:55.676Z,99806.53
2023-07-31T04:11:22.307Z,99808.72
2023-07-31T04:13:49.033Z,99789.47
2023-07-31T04:16:15.608Z,99770.00
2023-07-31T04:18:42.167Z,99760.09
2023-07-31T04:21:08.772Z,99751.84
2023-07-31T04:23:35.442Z,99747.00
2023-07-31T04:26:02.087Z,99715.66
2023-07-31T04:28:28.855Z,99720.56
2023-07-31T04:30:55.514Z,99692.69
2023-07-31T04:33:22.587Z,99695.50
2023-07-31T04:35:58.086Z,99699.03
2023-07-31T04:38:24.688Z,99678.75
2023-07-31T04:40:51.515Z,99671.03
2023-07-31T04:43:18.194Z,99672.91
2023-07-31T04:45:48.982Z,99642.41
2023-07-31T04:48:16.409Z,99639.81
2023-07-31T04:50:43.394Z,99629.69
2023-07-31T04:53:09.966Z,99623.84
2023-07-31T04:55:36.722Z,99608.63
2023-07-31T04:58:06.065Z,99589.13
2023-07-31T05:00:32.933Z,99549.91
2023-07-31T05:02:59.794Z,99535.75
2023-07-31T05:05:26.516Z,99520.25
2023-07-31T05:07:53.168Z,99526.19
2023-07-31T05:10:19.768Z,99512.78
2023-07-31T05:12:46.466Z,99518.78
2023-07-31T05:15:13.133Z,99500.38
2023-07-31T05:17:39.797Z,99472.88
2023-07-31T05:20:07.310Z,99464.31
2023-07-31T05:22:34.162Z,99459.81
2023-07-31T05:25:01.100Z,99449.69
2023-07-31T05:27:27.900Z,99409.88
2023-07-31T05:29:54.480Z,99411.25
2023-07-31T05:32:21.255Z,99363.19
2023-07-31T05:34:48.004Z,99212.31
2023-07-31T05:37:15.032Z,99121.78
2023-07-31T05:39:41.626Z,99050.50
2023-07-31T05:42:08.188Z,99039.00
2023-07-31T05:44:35.062Z,99017.13
2023-07-31T05:47:01.761Z,99006.19
2023-07-31T05:49:28.410Z,98990.94
2023-07-31T05:51:55.030Z,98955.97
2023-07-31T05:54:21.628Z,98957.28
2023-07-31T05:56:48.250Z,98939.91
2023-07-31T05:59:15.182Z,98926.28
2023-07-31T06:01:41.847Z,98911.88
2023-07-31T06:04:08.617Z,98898.53
2023-07-31T06:06:35.529Z,98883.31
2023-07-31T06:09:02.136Z,98870.44
2023-07-31T06:11:28.770Z,98845.63
2023-07-31T06:13:57.842Z,98844.81
2023-07-31T06:16:24.416Z,98837.59
2023-07-31T06:18:50.987Z,98819.66
2023-07-31T06:21:18.180Z,98792.91
2023-07-31T06:23:44.833Z,98769.97
2023-07-31T06:26:11.431Z,98813.22
2023-07-31T06:28:38.056Z,98788.66
2023-07-31T06:31:05.134Z,98784.63
2023-07-31T06:33:31.959Z,98773.69
2023-07-31T06:35:58.517Z,98751.53
2023-07-31T06:38:28.640Z,99488.44
2023-07-31T06:40:55.246Z,99436.09
2023-07-31T06:43:21.997Z,99392.25
2023-07-31T06:45:51.771Z,99380.22
2023-07-31T06:48:18.459Z,99364.72
2023-07-31T06:50:45.139Z,99356.97
2023-07-31T06:53:11.782Z,99336.44
2023-07-31T06:55:38.704Z,99317.50
2023-07-31T06:58:05.269Z,99317.75
2023-07-31T07:00:32.226Z,99304.66
2023-07-31T07:02:58.851Z,99300.09
2023-07-31T07:05:25.579Z,99283.81
2023-07-31T07:07:54.883Z,99286.22
2023-07-31T07:10:21.553Z,99295.28
2023-07-31T07:12:49.754Z,99287.53
2023-07-31T07:15:16.408Z,99269.09
2023-07-31T07:17:43.460Z,99253.06
2023-07-31T07:20:10.542Z,99229.53
2023-07-31T07:22:37.232Z,99219.66
2023-07-31T07:25:05.277Z,99207.06
2023-07-31T07:27:32.172Z,99191.31
2023-07-31T07:30:00.335Z,99186.78
2023-07-31T07:32:27.156Z,99171.50
2023-07-31T07:34:53.908Z,99168.81
2023-07-31T07:37:20.570Z,99125.00
2023-07-31T07:39:47.219Z,99146.38
2023-07-31T07:42:16.333Z,99161.31
2023-07-31T07:44:42.984Z,99160.47
2023-07-31T07:47:09.795Z,99156.19
2023-07-31T07:49:36.845Z,99160.47
2023-07-31T07:52:04.619Z,99173.09
2023-07-31T07:54:32.920Z,99168.00
2023-07-31T07:57:00.381Z,99180.28
2023-07-31T07:59:26.988Z,99169.91
2023-07-31T08:01:53.668Z,99190.75
2023-07-31T08:04:20.365Z,99199.03
2023-07-31T08:06:47.066Z,99201.44
2023-07-31T08:09:13.680Z,99175.50
2023-07-31T08:11:40.363Z,99170.44
2023-07-31T08:14:07.121Z,99168.75
2023-07-31T08:16:33.942Z,99163.59
2023-07-31T08:19:00.923Z,99127.13
2023-07-31T08:21:27.705Z,99132.09
2023-07-31T08:23:54.354Z,99126.84
2023-07-31T08:26:22.183Z,99124.66
2023-07-31T08:28:50.078Z,99140.91
2023-07-31T08:31:16.879Z,99143.34
2023-07-31T08:33:43.752Z,99110.50
2023-07-31T08:36:10.532Z,99155.91
2023-07-31T08:38:37.384Z,99136.44
2023-07-31T08:41:06.083Z,99169.94
2023-07-31T08:43:37.326Z,99173.66
2023-07-31T08:46:06.667Z,99176.59
2023-07-31T08:48:34.591Z,99193.13
2023-07-31T08:51:06.767Z,99162.94
2023-07-31T08:53:35.844Z,99173.34
2023-07-31T08:56:03.829Z,99189.41
2023-07-31T08:58:33.432Z,99178.47
2023-07-31T09:01:05.380Z,99192.69
2023-07-31T09:03:37.251Z,99205.22
2023-07-31T09:06:07.467Z,99212.22
2023-07-31T09:08:42.936Z,99225.66
2023-07-31T09:11:11.786Z,99248.09
2023-07-31T09:13:41.331Z,99242.25
2023-07-31T09:16:11.365Z,99256.69
2023-07-31T09:18:58.346Z,99254.00
2023-07-31T09:21:26.902Z,99258.56
2023-07-31T09:23:55.487Z,99268.97
2023-07-31T09:26:36.646Z,99274.59
2023-07-31T09:29:20.930Z,99289.00
2023-07-31T09:31:47.735Z,99282.66
2023-07-31T09:34:15.150Z,99323.00
2023-07-31T09:36:46.218Z,99350.34
2023-07-31T09:39:15.095Z,99380.88
2023-07-31T09:41:44.914Z,99390.78
2023-07-31T09:44:12.133Z,99430.97
2023-07-31T09:46:39.457Z,99466.31
2023-07-31T09:49:10.789Z,99518.81
2023-07-31T09:51:42.373Z,99553.13
2023-07-31T09:54:17.121Z,99590.59
2023-07-31T09:56:49.672Z,99631.03
2023-07-31T09:59:19.675Z,99658.94
2023-07-31T10:01:50.525Z,99690.53
2023-07-31T10:04:20.488Z,99730.47
2023-07-31T10:06:50.647Z,99764.00
2023-07-31T10:09:19.899Z,99775.25
2023-07-31T10:11:57.264Z,99760.75
2023-07-31T10:14:25.277Z,99784.38
2023-07-31T10:16:54.064Z,99796.47
2023-07-31T10:19:22.151Z,99798.63
2023-07-31T10:21:50.266Z,99816.03
2023-07-31T10:24:17.426Z,99826.50
2023-07-31T10:26:47.155Z,99479.59
2023-07-31T10:29:15.152Z,99476.59
2023-07-31T10:31:42.729Z,99454.03
2023-07-31T10:34:09.871Z,99467.88
2023-07-31T10:36:36.640Z,99454.31
2023-07-31T10:39:25.584Z,99468.78
2023-07-31T10:41:52.396Z,99494.75
2023-07-31T10:44:20.615Z,99503.50
2023-07-31T10:46:47.876Z,99543.75
2023-07-31T10:49:23.820Z,99567.81
2023-07-31T10:52:10.258Z,99598.00
2023-07-31T10:54:40.789Z,99622.78
2023-07-31T10:57:27.768Z,99656.66
2023-07-31T11:00:24.095Z,99693.25
2023-07-31T11:03:17.108Z,99720.19
2023-07-31T11:09:09.416Z,99762.47
2023-07-31T11:14:41.671Z,99802.47
2023-07-31T11:17:31.238Z,99814.56
2023-07-31T11:20:13.069Z,99795.22
2023-07-31T11:22:47.763Z,99831.97
2023-07-31T11:25:25.197Z,99831.97
2023-07-31T11:31:27.802Z,99845.13
2023-07-31T11:34:23.581Z,99861.22
2023-07-31T11:36:59.709Z,99844.06
2023-07-31T11:39:35.864Z,99865.28
2023-07-31T11:42:29.175Z,99873.31
2023-07-31T11:45:02.454Z,99860.41
2023-07-31T11:54:25.701Z,99881.09
2023-07-31T11:57:08.637Z,99881.63
2023-07-31T12:00:03.760Z,99921.16
2023-07-31T12:02:38.168Z,99938.31
2023-07-31T12:05:25.966Z,99972.47
2023-07-31T12:10:43.256Z,100233.19
2023-07-31T12:16:23.207Z,100246.94
2023-07-31T12:18:57.216Z,100268.44
2023-07-31T12:21:37.112Z,100285.53
2023-07-31T12:24:19.184Z,100329.44
2023-07-31T12:30:55.637Z,100356.28
2023-07-31T12:33:23.154Z,100361.22
2023-07-31T12:35:50.141Z,100381.91
2023-07-31T12:38:16.834Z,100356.84
2023-07-31T12:40:43.483Z,100373.56
2023-07-31T12:43:10.187Z,100373.44
2023-07-31T12:45:37.180Z,100360.50
2023-07-31T12:48:04.144Z,100351.06
2023-07-31T12:50:31.014Z,100352.41
2023-07-31T12:52:58.535Z,100350.78
2023-07-31T12:55:25.383Z,100350.50
2023-07-31T12:57:52.457Z,100334.19
2023-07-31T13:00:20.028Z,100337.78
2023-07-31T13:02:47.323Z,100326.91
2023-07-31T13:05:16.349Z,100346.00
2023-07-31T13:07:43.134Z,100351.28
2023-07-31T13:10:10.414Z,100360.34
2023-07-31T13:12:37.245Z,100345.75
2023-07-31T13:15:08.378Z,100366.69
2023-07-31T13:17:35.368Z,100369.53
2023-07-31T13:20:02.613Z,100349.16
2023-07-31T13:22:29.395Z,100338.06
2023-07-31T13:24:56.230Z,100347.94
2023-07-31T13:27:23.070Z,100342.81
2023-07-31T13:29:50.450Z,100341.66
2023-07-31T13:32:21.252Z,100320.19
2023-07-31T13:34:49.146Z,100319.38
2023-07-31T13:37:16.320Z,100315.13
2023-07-31T13:39:43.904Z,100300.28
2023-07-31T13:42:13.574Z,100304.34
2023-07-31T13:44:40.924Z,100272.91
2023-07-31T13:47:08.732Z,100265.91
2023-07-31T13:49:36.811Z,100255.88
2023-07-31T13:52:04.004Z,100239.22
2023-07-31T13:54:31.615Z,100239.22
2023-07-31T13:56:58.404Z,100241.00
2023-07-31T13:59:25.100Z,100220.75
2023-07-31T14:01:51.950Z,100198.41
2023-07-31T14:04:19.205Z,100163.69
2023-07-31T14:06:46.288Z,100124.28
2023-07-31T14:09:13.131Z,100078.06
2023-07-31T14:11:42.317Z,100007.78
2023-07-31T14:14:10.995Z,99951.56
2023-07-31T14:16:38.010Z,99905.38
2023-07-31T14:19:05.450Z,99863.56
2023-07-31T14:21:32.503Z,99831.91
2023-07-31T14:23:59.213Z,99807.78
2023-07-31T14:26:25.828Z,99775.41
2023-07-31T14:28:52.501Z,99745.44
2023-07-31T14:31:19.252Z,99699.03
2023-07-31T14:33:46.440Z,99671.72
2023-07-31T14:36:13.113Z,99661.84
2023-07-31T14:38:42.213Z,99506.50
2023-07-31T14:41:08.946Z,99505.41
2023-07-31T14:43:38.472Z,99473.81
2023-07-31T14:46:06.425Z,99479.19
2023-07-31T14:48:36.231Z,99460.69
2023-07-31T14:51:05.540Z,99451.56
2023-07-31T14:53:34.672Z,99435.50
2023-07-31T14:56:01.277Z,99416.47
2023-07-31T14:58:27.956Z,99375.25
2023-07-31T15:00:54.562Z,99364.25
2023-07-31T15:03:21.337Z,99318.19
2023-07-31T15:05:48.077Z,99316.84
2023-07-31T15:08:14.716Z,99309.03
2023-07-31T15:10:41.378Z,99295.88
2023-07-31T15:13:08.176Z,99275.03
2023-07-31T15:15:34.879Z,99283.31
2023-07-31T15:18:01.587Z,99260.84
2023-07-31T15:20:28.245Z,99261.88
2023-07-31T15:22:54.865Z,99247.16
2023-07-31T15:25:21.560Z,99195.97
2023-07-31T15:27:50.677Z,99176.75
2023-07-31T15:30:17.430Z,99186.31
2023-07-31T15:32:46.600Z,99183.94
2023-07-31T15:35:13.212Z,99148.81
2023-07-31T15:37:40.219Z,99135.44
2023-07-31T15:40:07.420Z,99108.34
2023-07-31T15:42:39.164Z,99084.06
2023-07-31T15:45:07.232Z,99077.31
2023-07-31T15:47:33.831Z,99077.59
2023-07-31T15:50:00.460Z,99046.56
2023-07-31T15:52:27.116Z,99052.09
2023-07-31T15:54:53.776Z,99038.94
2023-07-31T15:57:20.407Z,99019.94
2023-07-31T15:59:46.958Z,99015.41
2023-07-31T16:02:13.699Z,99004.72
2023-07-31T16:04:41.327Z,98987.06
2023-07-31T16:07:08.056Z,98970.44
2023-07-31T16:09:34.584Z,98958.38
2023-07-31T16:12:01.210Z,98953.78
2023-07-31T16:14:27.724Z,98986.16
2023-07-31T16:16:54.836Z,98976.78
2023-07-31T16:19:21.440Z,98975.16
2023-07-31T16:21:48.063Z,98955.91
2023-07-31T16:24:14.645Z,98949.19
2023-07-31T16:26:41.590Z,98925.94
2023-07-31T16:29:08.633Z,98906.13
2023-07-31T16:31:46.863Z,98882.03
2023-07-31T16:34:18.271Z,98890.81
2023-07-31T16:36:44.906Z,98878.50
2023-07-31T16:39:11.611Z,98878.25
2023-07-31T16:41:38.583Z,98863.28
2023-07-31T16:44:06.229Z,98838.66
2023-07-31T16:46:34.374Z,98834.41
2023-07-31T16:49:01.161Z,98807.38
2023-07-31T16:51:27.805Z,98771.38
2023-07-31T16:53:55.285Z,98754.41
2023-07-31T16:56:21.891Z,98756.50
2023-07-31T16:58:48.473Z,98756.28
2023-07-31T17:01:15.241Z,98732.31
2023-07-31T17:03:42.033Z,98718.13
2023-07-31T17:06:08.726Z,98681.53
2023-07-31T17:08:35.329Z,98665.81
2023-07-31T17:11:02.210Z,98663.44
2023-07-31T17:13:28.826Z,98665.38
2023-07-31T17:15:55.504Z,98655.75
2023-07-31T17:18:22.150Z,98642.38
2023-07-31T17:20:48.716Z,99394.56
2023-07-31T17:23:15.438Z,99330.88
2023-07-31T17:25:42.151Z,99312.91
2023-07-31T17:28:08.844Z,99305.94
2023-07-31T17:30:35.532Z,99292.56
2023-07-31T17:33:02.221Z,99294.72
2023-07-31T17:35:29.006Z,99261.53
2023-07-31T17:37:58.197Z,99272.22
2023-07-31T17:40:25.999Z,99265.53
2023-07-31T17:42:52.604Z,99263.94
2023-07-31T17:45:19.429Z,99229.91
2023-07-31T17:47:46.080Z,99209.03
2023-07-31T17:50:12.766Z,99187.63
2023-07-31T17:52:39.477Z,99191.38
2023-07-31T17:55:06.652Z,99196.41
2023-07-31T17:57:33.292Z,99216.22
2023-07-31T17:59:59.999Z,99192.41
2023-07-31T18:02:26.724Z,99194.59
2023-07-31T18:04:53.304Z,99195.97
2023-07-31T18:07:19.965Z,99183.19
2023-07-31T18:09:46.789Z,99193.38
2023-07-31T18:12:13.921Z,99200.38
2023-07-31T18:14:41.287Z,99192.59
2023-07-31T18:17:08.261Z,99188.84
2023-07-31T18:19:34.983Z,99159.16
2023-07-31T18:22:01.714Z,99149.28
2023-07-31T18:24:28.509Z,99150.34
2023-07-31T18:26:55.191Z,99154.34
2023-07-31T18:29:22.080Z,99116.41
2023-07-31T18:31:48.744Z,99095.28
2023-07-31T18:34:15.450Z,99098.50
2023-07-31T18:36:43.384Z,99067.00
2023-07-31T18:39:10.812Z,99085.94
2023-07-31T18:41:37.527Z,99086.50
2023-07-31T18:44:04.242Z,99085.19
2023-07-31T18:46:30.870Z,99080.88
2023-07-31T18:48:57.835Z,99063.28
2023-07-31T18:51:24.806Z,99064.63
2023-07-31T18:53:51.455Z,99070.47
2023-07-31T18:56:18.440Z,99044.34
2023-07-31T18:58:45.161Z,99051.78
2023-07-31T19:01:11.907Z,99061.69
2023-07-31T19:03:39.123Z,99033.88
2023-07-31T19:06:09.328Z,99025.31
2023-07-31T19:08:36.284Z,99029.84
2023-07-31T19:11:10.625Z,99018.66
2023-07-31T19:13:40.574Z,99031.47
2023-07-31T19:16:08.800Z,98998.91
2023-07-31T19:18:37.018Z,99008.25
2023-07-31T19:21:05.960Z,98996.00
2023-07-31T19:23:32.786Z,99006.94
2023-07-31T19:26:03.011Z,99000.81
2023-07-31T19:28:30.595Z,99001.59
2023-07-31T19:30:58.898Z,99002.97
2023-07-31T19:33:25.590Z,99004.28
2023-07-31T19:35:59.350Z,98991.75
2023-07-31T19:38:26.461Z,98976.28
2023-07-31T19:40:53.553Z,98975.47
2023-07-31T19:43:20.311Z,98962.38
2023-07-31T19:45:47.521Z,98941.31
2023-07-31T19:48:14.190Z,98947.19
2023-07-31T19:50:40.853Z,98942.91
2023-07-31T19:53:07.496Z,98947.97
2023-07-31T19:55:34.071Z,98945.06
2023-07-31T19:58:00.782Z,98943.44
2023-07-31T20:00:27.400Z,98926.38
2023-07-31T20:02:54.180Z,98934.88
2023-07-31T20:05:20.894Z,98931.44
2023-07-31T20:07:47.650Z,98899.69
2023-07-31T20:10:14.587Z,98906.03
2023-07-31T20:12:41.270Z,98892.72
2023-07-31T20:15:20.109Z,98897.75
2023-07-31T20:17:47.207Z,98889.19
2023-07-31T20:20:14.079Z,98893.47
2023-07-31T20:22:40.958Z,98893.75
2023-07-31T20:25:08.387Z,98870.78
2023-07-31T20:27:34.977Z,98863.59
2023-07-31T20:30:04.280Z,98856.94
2023-07-31T20:32:30.977Z,98851.31
2023-07-31T20:34:57.696Z,98859.31
2023-07-31T20:37:24.543Z,98842.75
2023-07-31T20:39:52.112Z,98820.06
2023-07-31T20:42:21.709Z,98826.72
2023-07-31T20:44:48.427Z,98829.34
2023-07-31T20:47:15.034Z,98799.72
2023-07-31T20:49:41.986Z,98799.44
2023-07-31T20:52:08.879Z,98756.75
2023-07-31T20:54:35.657Z,98769.22
2023-07-31T20:57:04.846Z,98746.31
2023-07-31T20:59:31.505Z,98758.81
2023-07-31T21:01:58.243Z,98751.53
2023-07-31T21:04:24.900Z,98739.53
2023-07-31T21:06:51.678Z,98727.28
2023-07-31T21:09:19.974Z,98728.09
2023-07-31T21:11:46.717Z,98720.34
2023-07-31T21:14:13.455Z,98697.97
2023-07-31T21:16:40.686Z,98700.00
2023-07-31T21:19:07.614Z,98697.91
2023-07-31T21:21:34.384Z,98681.38
2023-07-31T21:24:01.120Z,98686.69
2023-07-31T21:29:49.153Z,98666.44
2023-07-31T21:32:31.713Z,98664.00
2023-07-31T21:35:00.151Z,98663.22
2023-07-31T21:37:31.850Z,98649.16
2023-07-31T21:40:04.088Z,98650.25
2023-07-31T21:42:40.676Z,98672.31
2023-07-31T21:45:13.585Z,98649.19
2023-07-31T21:47:40.550Z,98644.94
2023-07-31T21:50:08.950Z,98642.00
2023-07-31T21:52:46.290Z,98628.66
2023-07-31T21:55:15.677Z,98635.06
2023-07-31T21:58:06.496Z,98623.63
2023-07-31T22:00:36.069Z,98629.44
2023-07-31T22:03:10.135Z,98614.81
2023-07-31T22:05:48.119Z,98638.47
2023-07-31T22:08:28.128Z,98623.00
2023-07-31T22:10:59.959Z,98613.50
2023-07-31T22:13:48.401Z,98627.13
2023-07-31T22:16:19.034Z,98631.13
2023-07-31T22:18:49.150Z,98628.72
2023-07-31T22:21:26.895Z,98614.88
2023-07-31T22:24:03.215Z,98615.66
2023-07-31T22:26:29.871Z,98618.06
2023-07-31T22:28:58.300Z,98632.19
2023-07-31T22:31:29.511Z,98638.53
2023-07-31T22:34:00.885Z,98673.22
2023-07-31T22:36:36.364Z,98680.41
2023-07-31T22:39:05.654Z,98666.81
2023-07-31T22:41:32.828Z,98678.03
2023-07-31T22:44:00.892Z,98688.44
2023-07-31T22:46:27.749Z,98704.94
2023-07-31T22:48:54.998Z,98696.78
2023-07-31T22:51:26.204Z,98729.53
2023-07-31T22:53:53.111Z,98716.53
2023-07-31T22:56:19.752Z,98735.22
2023-07-31T22:58:48.749Z,98727.00
2023-07-31T23:01:16.232Z,98733.16
2023-07-31T23:03:43.034Z,98748.09
2023-07-31T23:06:10.041Z,98749.44
2023-07-31T23:08:36.696Z,98759.03
2023-07-31T23:11:05.830Z,98764.59
2023-07-31T23:13:33.966Z,98749.13
2023-07-31T23:16:00.743Z,98737.38
2023-07-31T23:18:27.626Z,98761.38
2023-07-31T23:20:57.469Z,98739.56
2023-07-31T23:23:25.833Z,98744.91
2023-07-31T23:25:53.477Z,98763.59
2023-07-31T23:28:21.221Z,98774.25
2023-07-31T23:30:49.908Z,98782.00
2023-07-31T23:33:16.719Z,98793.19
2023-07-31T23:35:43.944Z,98796.09
2023-07-31T23:38:10.926Z,98792.38
2023-07-31T23:40:37.664Z,98792.66
2023-07-31T23:43:04.383Z,98818.78
2023-07-31T23:45:36.525Z,98812.66
2023-07-31T23:48:04.034Z,98802.56
2023-07-31T23:50:33.254Z,98824.41
2023-07-31T23:53:00.516Z,98828.69
2023-07-31T23:55:27.415Z,98849.28
2023-07-31T23:57:54.296Z,98863.13
